Time;durP1;ratioP1;P1;durP2;ratioP2;P2;SDS_P1;SDS_P2;PMS_P1;PMS_P2;Temp;Humidity;BMP_temperature;BMP_pressure;BME280_temperature;BME280_humidity;BME280_pressure;Samples;Min_cycle;Max_cycle;Signal;HPM_P1;HPM_P2
2023/05/30 07:23:17;;;;;;;14.68;6.00;;;;;;;-145.79;56.43;78640.78;5276767;28;20402;-71
2023/05/30 07:25:48;;;;;;;12.80;5.00;;;;;;;-145.79;54.88;78649.25;5258572;28;20033;-75
2023/05/30 07:28:22;;;;;;;10.40;5.53;;;;;;;-145.79;54.91;78632.28;5258658;28;20044;-76
2023/05/30 07:30:53;;;;;;;12.98;5.80;;;;;;;-145.79;54.54;78606.84;5259273;28;20108;-74
2023/05/30 07:33:24;;;;;;;12.77;5.95;;;;;;;-145.79;54.32;78585.66;5257702;28;20567;-74
2023/05/30 07:35:56;;;;;;;13.80;6.22;;;;;;;-145.79;53.70;78602.59;5259154;28;20468;-74
2023/05/30 07:38:27;;;;;;;20.17;6.80;;;;;;;-145.79;54.76;78551.72;5258097;28;20017;-73
2023/05/30 07:40:58;;;;;;;17.23;6.25;;;;;;;-145.79;55.78;78526.28;5257682;28;20057;-72
2023/05/30 07:43:30;;;;;;;16.58;6.40;;;;;;;-145.79;53.23;78530.53;5258663;28;20583;-70
2023/05/30 07:46:01;;;;;;;20.25;5.90;;;;;;;-145.79;53.54;78526.28;5258938;28;20032;-70
2023/05/30 07:48:32;;;;;;;15.93;5.40;;;;;;;-145.79;52.65;78543.25;5257882;28;20036;-72
2023/05/30 07:51:04;;;;;;;11.85;5.68;;;;;;;-145.79;53.19;78551.72;5258403;28;20034;-72
2023/05/30 07:53:36;;;;;;;14.05;7.35;;;;;;;-145.79;54.30;78541.13;5258139;28;20108;-72
2023/05/30 07:56:07;;;;;;;10.25;5.68;;;;;;;-145.79;52.76;78545.38;5257588;28;20029;-73
2023/05/30 07:58:39;;;;;;;14.25;6.95;;;;;;;-145.79;53.64;78539.00;5257933;28;20017;-73
2023/05/30 08:01:10;;;;;;;12.32;5.80;;;;;;;-145.79;53.07;78519.91;5257624;28;20650;-73
2023/05/30 08:03:41;;;;;;;14.50;5.97;;;;;;;-145.79;52.73;78490.22;5258432;28;20021;-74
2023/05/30 08:06:12;;;;;;;10.80;6.30;;;;;;;-145.79;51.71;78483.88;5254958;28;20544;-73
2023/05/30 08:08:44;;;;;;;12.10;5.93;;;;;;;-145.79;50.71;78496.59;5245143;28;20500;-73
2023/05/30 08:11:15;;;;;;;13.05;5.47;;;;;;;-145.79;51.64;78462.66;5258080;28;20037;-74
2023/05/30 08:13:47;;;;;;;14.88;5.88;;;;;;;-145.79;51.46;78437.22;5257869;28;20078;-75
2023/05/30 08:16:23;;;;;;;11.18;5.75;;;;;;;-145.79;52.04;78426.63;5257190;28;20029;-74
2023/05/30 08:18:56;;;;;;;18.95;14.77;;;;;;;-145.79;50.45;78420.28;5257376;28;20028;-73
2023/05/30 08:21:27;;;;;;;13.82;7.05;;;;;;;-145.79;50.66;78420.28;5257164;28;20128;-74
2023/05/30 08:23:58;;;;;;;7.43;5.82;;;;;;;-145.79;50.80;78441.47;5256473;28;20467;-75
2023/05/30 08:26:30;;;;;;;11.75;6.32;;;;;;;-145.79;49.95;78439.34;5256998;28;20091;-74
2023/05/30 08:29:03;;;;;;;11.95;6.00;;;;;;;-145.79;50.75;78416.03;5256273;28;20033;-75
2023/05/30 08:31:35;;;;;;;17.58;6.47;;;;;;;-145.79;51.36;78424.50;5257190;28;20372;-73
2023/05/30 08:34:06;;;;;;;13.25;6.30;;;;;;;-145.79;49.88;78424.50;5246553;28;20104;-72
2023/05/30 08:36:37;;;;;;;10.45;5.53;;;;;;;-145.79;49.92;78424.50;5242157;28;20091;-73
2023/05/30 08:39:12;;;;;;;11.85;6.00;;;;;;;-145.79;49.73;78416.03;5243894;28;20060;-73
2023/05/30 08:41:43;;;;;;;8.45;5.68;;;;;;;-145.79;49.98;78399.06;5243608;28;20107;-73
2023/05/30 08:44:15;;;;;;;11.82;6.10;;;;;;;-145.79;49.48;78386.34;5243087;28;20017;-73
2023/05/30 08:46:46;;;;;;;8.65;6.03;;;;;;;-145.79;48.59;78407.53;5242955;28;20029;-73
2023/05/30 08:49:21;;;;;;;11.30;6.50;;;;;;;-145.79;49.74;78401.19;5242747;28;20200;-74
2023/05/30 08:51:54;;;;;;;8.07;5.78;;;;;;;-145.79;49.01;78420.28;5242017;28;20124;-75
2023/05/30 08:54:30;;;;;;;8.70;5.90;;;;;;;-145.79;49.02;78382.09;5243678;28;20034;-74
2023/05/30 08:57:09;;;;;;;11.52;6.40;;;;;;;-145.79;48.83;78411.78;5242498;28;20079;-72
2023/05/30 08:59:42;;;;;;;11.23;5.68;;;;;;;-145.79;48.68;78382.09;5242998;28;20053;-72
2023/05/30 09:02:14;;;;;;;15.85;6.70;;;;;;;-145.79;48.33;78379.97;5242668;28;20122;-74
2023/05/30 09:04:47;;;;;;;10.02;5.80;;;;;;;-145.79;47.86;78375.75;5242526;28;20049;-73
2023/05/30 09:07:18;;;;;;;13.05;5.95;;;;;;;-145.79;49.18;78324.84;5243070;28;20481;-74
2023/05/30 09:09:50;;;;;;;13.95;5.63;;;;;;;-145.79;47.52;78320.63;5243496;28;20156;-74
2023/05/30 09:12:22;;;;;;;10.52;6.35;;;;;;;-145.79;47.33;78343.94;5242411;28;20029;-73
2023/05/30 09:14:53;;;;;;;9.60;6.90;;;;;;;-145.79;47.82;78333.34;5243025;28;20025;-73
2023/05/30 09:17:25;;;;;;;11.35;5.68;;;;;;;-145.79;48.50;78314.25;5243061;28;20053;-77
2023/05/30 09:19:57;;;;;;;11.68;6.53;;;;;;;-145.79;47.31;78318.50;5242255;28;20025;-74
2023/05/30 09:22:31;;;;;;;10.63;6.75;;;;;;;-145.79;47.66;78316.38;5242802;28;20500;-75
2023/05/30 09:25:03;;;;;;;11.75;5.90;;;;;;;-145.79;47.88;78265.50;5243372;28;20032;-74
2023/05/30 09:27:35;;;;;;;17.30;14.07;;;;;;;-145.79;47.39;78261.25;5241998;28;20074;-73
2023/05/30 09:30:08;;;;;;;11.18;7.10;;;;;;;-145.79;46.97;78265.50;5242608;28;20091;-73
2023/05/30 09:32:40;;;;;;;12.40;7.63;;;;;;;-145.79;46.76;78261.25;5241944;28;20021;-75
2023/05/30 09:35:12;;;;;;;9.35;6.32;;;;;;;-145.79;46.88;78248.53;5242653;28;20044;-74
2023/05/30 09:37:43;;;;;;;11.32;6.60;;;;;;;-145.79;46.49;78235.81;5242502;28;20053;-75
2023/05/30 09:40:15;;;;;;;8.98;6.78;;;;;;;-145.79;46.80;78229.47;5241751;28;20111;-74
2023/05/30 09:42:51;;;;;;;16.30;9.90;;;;;;;-145.79;46.78;78191.28;5242613;28;20163;-76
2023/05/30 09:45:24;;;;;;;9.57;7.47;;;;;;;-145.79;46.56;78195.53;5241590;28;20082;-76
2023/05/30 09:47:55;;;;;;;13.93;6.65;;;;;;;-145.79;46.41;78206.13;5241687;28;20353;-76
2023/05/30 09:50:26;;;;;;;10.13;5.38;;;;;;;-145.79;46.89;78163.72;5242496;28;20031;-76
2023/05/30 09:52:59;;;;;;;13.23;7.13;;;;;;;-145.79;45.91;78199.78;5242951;28;20239;-77
2023/05/30 09:55:31;;;;;;;15.23;7.10;;;;;;;-145.79;45.56;78178.56;5240895;28;20528;-76
2023/05/30 09:58:02;;;;;;;10.68;7.38;;;;;;;-145.79;45.63;78184.94;5241888;28;20289;-76
2023/05/30 10:00:33;;;;;;;12.82;7.78;;;;;;;-145.79;45.48;78191.28;5240987;28;20053;-75
2023/05/30 10:03:08;;;;;;;12.95;7.00;;;;;;;-145.79;45.25;78191.28;5241654;28;20036;-76
2023/05/30 10:05:39;;;;;;;10.02;6.18;;;;;;;-145.79;45.13;78182.81;5242331;28;20021;-76
2023/05/30 10:08:11;;;;;;;10.77;6.40;;;;;;;-145.79;45.00;78157.38;5241331;28;20080;-76
2023/05/30 10:10:43;;;;;;;11.65;7.60;;;;;;;-145.79;45.00;78167.97;5241937;28;20127;-75
2023/05/30 10:13:14;;;;;;;11.38;6.93;;;;;;;-145.79;45.47;78178.56;5241596;28;20116;-76
2023/05/30 10:15:46;;;;;;;11.00;7.05;;;;;;;-145.79;45.83;78138.28;5241055;28;20021;-75
2023/05/30 10:18:20;;;;;;;12.32;7.28;;;;;;;-145.79;44.70;78123.44;5241799;28;20440;-75
2023/05/30 10:20:59;;;;;;;11.15;7.60;;;;;;;-145.79;44.59;78119.22;5241580;28;20064;-74
2023/05/30 10:23:30;;;;;;;13.20;8.40;;;;;;;-145.79;44.67;78110.72;5241173;28;20030;-75
2023/05/30 10:26:04;;;;;;;13.88;8.02;;;;;;;-145.79;44.72;78127.69;5242055;28;20393;-74
2023/05/30 10:28:38;;;;;;;12.38;7.03;;;;;;;-145.79;45.75;78089.53;5240701;28;20380;-74
2023/05/30 10:31:11;;;;;;;9.40;6.55;;;;;;;-145.79;44.30;78093.78;5241955;28;20044;-75
2023/05/30 10:33:49;;;;;;;10.68;7.47;;;;;;;-145.79;43.87;78098.00;5241673;28;20017;-76
2023/05/30 10:36:21;;;;;;;13.13;7.78;;;;;;;-145.79;44.13;78089.53;5239181;28;20022;-74
2023/05/30 10:39:31;;;;;;;9.75;7.28;;;;;;;-145.79;43.96;78057.72;5220925;28;20531;-72
2023/05/30 10:42:10;;;;;;;11.50;9.18;;;;;;;-145.79;43.82;78042.91;5238294;28;20132;-70
2023/05/30 10:44:54;;;;;;;15.18;7.75;;;;;;;-145.79;43.29;78047.13;5240212;28;20038;-69
2023/05/30 10:47:40;;;;;;;12.38;7.25;;;;;;;-145.79;43.23;78030.19;5241058;28;20018;-69
2023/05/30 10:50:24;;;;;;;11.40;7.18;;;;;;;-145.79;43.58;78032.28;5240668;28;20072;-69
2023/05/30 10:52:57;;;;;;;15.63;8.07;;;;;;;-145.79;42.80;78047.13;5241227;28;20076;-69
2023/05/30 10:55:29;;;;;;;13.25;8.70;;;;;;;-145.79;43.01;78025.94;5241575;28;20472;-70
2023/05/30 10:58:00;;;;;;;17.15;13.48;;;;;;;-145.79;43.35;78021.69;5239625;28;20041;-70
2023/05/30 11:00:32;;;;;;;19.38;15.32;;;;;;;-145.79;43.22;78006.84;5241104;28;20383;-69
2023/05/30 11:03:03;;;;;;;14.18;9.38;;;;;;;-145.79;43.63;77996.25;5233810;28;20516;-69
2023/05/30 11:05:35;;;;;;;7.93;6.20;;;;;;;-145.79;44.62;77983.53;5231189;28;20495;-69
2023/05/30 11:08:07;;;;;;;13.30;7.55;;;;;;;-145.79;42.87;78000.50;5239353;28;20038;-69
2023/05/30 11:10:38;;;;;;;11.70;8.15;;;;;;;-145.79;42.49;77992.00;5230296;28;20030;-69
2023/05/30 11:13:11;;;;;;;17.88;9.68;;;;;;;-145.79;42.42;77998.38;5238587;28;20326;-70
2023/05/30 11:15:45;;;;;;;11.15;7.97;;;;;;;-145.79;43.66;77975.06;5238850;28;20038;-72
2023/05/30 11:18:18;;;;;;;11.33;7.13;;;;;;;-145.79;42.47;77968.69;5237709;28;20045;-71
2023/05/30 11:20:55;;;;;;;14.98;9.23;;;;;;;-145.79;42.70;77958.09;5236183;28;20107;-69
2023/05/30 11:23:29;;;;;;;10.20;7.28;;;;;;;-145.79;42.25;77962.34;5233624;28;20389;-71
2023/05/30 11:26:00;;;;;;;10.38;7.38;;;;;;;-145.79;42.23;77922.06;5238442;28;20477;-69
2023/05/30 11:28:34;;;;;;;10.68;8.30;;;;;;;-145.79;42.02;77924.19;5239409;28;20033;-70
2023/05/30 11:31:19;;;;;;;12.88;7.32;;;;;;;-145.79;41.75;77911.47;5239699;28;20472;-69
2023/05/30 11:33:51;;;;;;;15.88;7.60;;;;;;;-145.79;42.15;77898.75;5238974;28;20125;-69
2023/05/30 11:36:23;;;;;;;14.27;7.30;;;;;;;-145.79;41.80;77890.25;5237020;28;20022;-70
2023/05/30 11:38:56;;;;;;;15.60;7.75;;;;;;;-145.79;41.56;77886.00;5226726;28;20595;-69
2023/05/30 11:41:28;;;;;;;9.35;7.00;;;;;;;-145.79;42.07;77869.06;5239709;28;20030;-69
2023/05/30 11:43:59;;;;;;;8.80;6.93;;;;;;;-145.79;42.48;77858.47;5239687;28;20495;-70
2023/05/30 11:46:31;;;;;;;12.18;7.45;;;;;;;-145.79;41.36;77839.38;5238577;28;20118;-70
2023/05/30 11:49:06;;;;;;;15.52;8.57;;;;;;;-145.79;41.12;77837.25;5239624;28;20101;-69
2023/05/30 11:51:38;;;;;;;12.07;9.30;;;;;;;-145.79;41.93;77792.75;5239689;28;20025;-70
2023/05/30 11:54:09;;;;;;;17.33;13.38;;;;;;;-145.79;40.87;77788.50;5238631;28;20358;-68
2023/05/30 11:56:40;;;;;;;12.80;8.00;;;;;;;-145.79;40.57;77794.88;5239070;28;20036;-70
2023/05/30 11:59:16;;;;;;;13.18;7.55;;;;;;;-145.79;40.48;77777.91;5238168;28;20029;-70
2023/05/30 12:01:51;;;;;;;;;;;;;;;-145.79;41.22;77750.34;5220194;28;20038;-69
2023/05/30 12:04:23;;;;;;;12.50;7.97;;;;;;;-145.79;40.53;77754.59;5228476;28;20399;-70
2023/05/30 12:07:00;;;;;;;11.23;7.13;;;;;;;-145.79;40.19;77731.28;5239442;28;20420;-70
2023/05/30 12:09:38;;;;;;;9.90;6.40;;;;;;;-145.79;40.41;77727.03;5241828;28;20036;-70
2023/05/30 12:12:09;;;;;;;9.77;6.30;;;;;;;-145.79;39.69;77722.78;5243194;28;20030;-69
2023/05/30 12:14:53;;;;;;;14.68;6.80;;;;;;;-145.79;39.74;77699.47;5241972;28;20515;-70
2023/05/30 12:17:24;;;;;;;9.88;6.90;;;;;;;-145.79;39.89;77697.34;5242915;28;20114;-69
2023/05/30 12:19:58;;;;;;;12.52;7.85;;;;;;;-145.79;39.68;77703.72;5242930;28;20081;-70
2023/05/30 12:22:32;;;;;;;13.43;6.93;;;;;;;-145.79;39.85;77699.47;5242256;28;20041;-69
2023/05/30 12:25:08;;;;;;;13.15;6.72;;;;;;;-145.79;39.28;77676.16;5243073;28;20391;-69
2023/05/30 12:27:47;;;;;;;12.23;6.25;;;;;;;-145.79;39.40;77635.88;5242124;28;20025;-70
2023/05/30 12:30:18;;;;;;;10.63;6.65;;;;;;;-145.79;38.91;77614.69;5241741;28;20471;-70
2023/05/30 12:32:53;;;;;;;12.55;7.28;;;;;;;-145.79;38.95;77629.53;5242938;28;20163;-70
2023/05/30 12:35:25;;;;;;;9.10;6.65;;;;;;;-145.79;38.97;77614.69;5241942;28;20385;-70
2023/05/30 12:37:58;;;;;;;11.98;7.18;;;;;;;-145.79;39.08;77591.38;5242082;28;20026;-69
2023/05/30 12:40:29;;;;;;;10.65;6.95;;;;;;;-145.79;38.91;77576.53;5239007;28;20064;-70
2023/05/30 12:43:00;;;;;;;7.45;5.68;;;;;;;-145.79;38.11;77576.53;5242028;28;20056;-70
2023/05/30 12:45:35;;;;;;;12.27;6.43;;;;;;;-145.79;37.71;77555.31;5242378;28;20029;-69
2023/05/30 12:48:06;;;;;;;9.40;6.20;;;;;;;-145.79;37.59;77555.31;5242687;28;20049;-69
2023/05/30 12:50:38;;;;;;;11.55;6.28;;;;;;;-145.79;37.40;77551.09;5240868;28;20131;-69
2023/05/30 12:53:09;;;;;;;7.80;5.47;;;;;;;-145.79;37.00;77559.56;5242084;28;20025;-69
2023/05/30 12:55:40;;;;;;;10.75;4.70;;;;;;;-145.79;37.77;77515.06;5242182;28;20030;-69
2023/05/30 12:58:12;;;;;;;11.20;5.78;;;;;;;-145.79;37.02;77519.28;5241372;28;20488;-69
2023/05/30 13:00:43;;;;;;;8.55;5.97;;;;;;;-145.79;37.16;77527.78;5240804;28;20029;-69
2023/05/30 13:03:14;;;;;;;14.32;6.15;;;;;;;-145.79;37.36;77521.41;5240500;28;20074;-69
2023/05/30 13:05:48;;;;;;;13.98;5.97;;;;;;;-145.79;37.69;77508.69;5240048;28;20026;-69
2023/05/30 13:08:20;;;;;;;11.88;6.10;;;;;;;-145.79;37.02;77481.13;5240584;28;20117;-69
2023/05/30 13:10:54;;;;;;;12.95;5.82;;;;;;;-145.79;36.52;77474.78;5239858;28;20025;-69
2023/05/30 13:13:25;;;;;;;12.95;6.50;;;;;;;-145.79;35.90;77453.59;5241904;28;20033;-69
2023/05/30 13:15:56;;;;;;;11.80;5.25;;;;;;;-145.79;36.11;77445.09;5241745;28;20037;-69
2023/05/30 13:18:28;;;;;;;18.35;6.32;;;;;;;-145.79;36.14;77432.38;5240476;28;20033;-69
2023/05/30 13:21:03;;;;;;;8.48;5.20;;;;;;;-145.79;36.06;77426.03;5240080;28;20033;-70
2023/05/30 13:23:35;;;;;;;10.45;5.03;;;;;;;-145.79;36.00;77415.44;5235725;28;20501;-68
2023/05/30 13:26:09;;;;;;;10.80;5.82;;;;;;;-145.79;36.20;77377.28;5220521;28;20026;-67
2023/05/30 13:28:40;;;;;;;9.77;4.78;;;;;;;-145.79;35.76;77392.13;5238027;28;20022;-67
2023/05/30 13:31:12;;;;;;;9.10;4.95;;;;;;;-145.79;35.20;77373.03;5241417;28;20040;-67
2023/05/30 13:33:44;;;;;;;9.25;5.32;;;;;;;-145.79;35.26;77373.03;5241033;28;20443;-68
2023/05/30 13:36:17;;;;;;;8.63;5.00;;;;;;;-145.79;34.75;77362.44;5241177;28;20164;-68
2023/05/30 13:38:48;;;;;;;10.35;5.65;;;;;;;-145.79;35.13;77362.44;5239187;28;20024;-68
2023/05/30 13:41:23;;;;;;;10.13;4.88;;;;;;;-145.79;35.38;77347.59;5236069;28;20033;-68
2023/05/30 13:43:55;;;;;;;;;;;;;;;-145.79;35.25;77305.22;5240751;28;20813;-68
2023/05/30 13:46:27;;;;;;;9.10;4.75;;;;;;;-145.79;34.86;77341.25;5238807;28;20003;-67
2023/05/30 13:48:59;;;;;;;7.10;4.95;;;;;;;-145.79;34.74;77347.59;5241255;28;20061;-68
2023/05/30 13:51:34;;;;;;;7.82;4.72;;;;;;;-145.79;34.98;77320.03;5240653;28;20029;-68
2023/05/30 13:54:06;;;;;;;6.57;4.72;;;;;;;-145.79;34.13;77307.31;5238848;28;20056;-68
2023/05/30 13:56:37;;;;;;;10.00;5.38;;;;;;;-145.79;34.61;77315.81;5240785;28;20059;-68
2023/05/30 13:59:08;;;;;;;7.88;4.75;;;;;;;-145.79;34.36;77332.75;5241054;28;20025;-68
2023/05/30 14:01:40;;;;;;;7.15;4.80;;;;;;;-145.79;34.80;77322.16;5240134;28;20029;-68
2023/05/30 14:04:12;;;;;;;8.50;4.60;;;;;;;-145.79;34.61;77298.84;5240538;28;20096;-68
2023/05/30 14:06:43;;;;;;;21.98;16.70;;;;;;;-145.79;34.55;77292.50;5239812;28;20037;-69
2023/05/30 14:09:15;;;;;;;8.93;5.22;;;;;;;-145.79;34.28;77281.91;5240885;28;20484;-69
2023/05/30 14:11:49;;;;;;;8.90;5.32;;;;;;;-145.79;34.13;77269.19;5240988;28;20036;-69
2023/05/30 14:14:24;;;;;;;9.65;5.57;;;;;;;-145.79;33.85;77254.34;5239504;28;20025;-68
2023/05/30 14:16:55;;;;;;;9.20;4.47;;;;;;;-145.79;34.15;77256.47;5240441;28;20101;-68
2023/05/30 14:19:29;;;;;;;9.60;5.20;;;;;;;-145.79;33.77;77277.66;5240721;28;20137;-68
2023/05/30 14:22:01;;;;;;;10.07;5.53;;;;;;;-145.79;33.71;77309.44;5240023;28;20052;-69
2023/05/30 14:24:32;;;;;;;11.82;5.63;;;;;;;-145.79;33.38;77300.97;5237498;28;20484;-69
2023/05/30 14:27:07;;;;;;;10.45;5.60;;;;;;;-145.79;33.99;77288.25;5239210;28;20464;-69
2023/05/30 14:29:38;;;;;;;14.68;5.70;;;;;;;-145.79;34.31;77252.22;5237983;28;20471;-69
2023/05/30 14:32:10;;;;;;;6.82;4.43;;;;;;;-145.79;34.16;77233.16;5231763;28;20116;-69
2023/05/30 14:34:42;;;;;;;9.73;4.55;;;;;;;-145.79;33.99;77258.56;5238747;28;20067;-66
2023/05/30 14:37:13;;;;;;;6.15;4.65;;;;;;;-145.79;34.86;77235.25;5239788;28;20030;-70
2023/05/30 14:39:44;;;;;;;11.18;5.63;;;;;;;-145.79;36.66;77224.66;5240001;28;20025;-72
2023/05/30 14:42:16;;;;;;;10.52;5.78;;;;;;;-145.79;37.32;77237.38;5239405;28;20029;-68
2023/05/30 14:44:47;;;;;;;12.73;6.55;;;;;;;-145.79;37.52;77214.06;5239343;28;20455;-72
2023/05/30 14:47:18;;;;;;;8.65;5.63;;;;;;;-145.79;38.04;77271.28;5237690;28;20037;-69
2023/05/30 14:49:50;;;;;;;10.25;5.90;;;;;;;-145.79;38.60;77292.50;5238289;28;20029;-69
2023/05/30 14:52:21;;;;;;;13.05;9.18;;;;;;;-145.79;38.69;77292.50;5239426;28;20025;-69
2023/05/30 14:54:52;;;;;;;9.07;6.28;;;;;;;-145.79;38.98;77328.53;5241027;28;20056;-69
2023/05/30 14:57:24;;;;;;;9.07;6.03;;;;;;;-145.79;39.25;77296.72;5240206;28;20428;-68
2023/05/30 14:59:55;;;;;;;10.80;6.20;;;;;;;-145.79;39.78;77337.00;5239705;28;20079;-69
2023/05/30 15:02:26;;;;;;;7.45;4.93;;;;;;;-145.79;40.01;77313.69;5240390;28;20029;-68
2023/05/30 15:04:58;;;;;;;10.98;5.78;;;;;;;-145.79;39.95;77330.66;5238705;28;20026;-68
2023/05/30 15:07:29;;;;;;;9.18;5.90;;;;;;;-145.79;40.25;77349.72;5236141;28;20018;-69
2023/05/30 15:10:02;;;;;;;9.63;5.30;;;;;;;-145.79;40.23;77364.56;5219844;28;20032;-69
2023/05/30 15:12:34;;;;;;;8.95;5.65;;;;;;;-145.79;40.31;77364.56;5235816;28;20036;-70
2023/05/30 15:15:06;;;;;;;10.70;5.00;;;;;;;-145.79;40.80;77351.84;5241135;28;20025;-69
2023/05/30 15:17:37;;;;;;;12.13;5.15;;;;;;;-145.79;40.51;77343.38;5238912;28;20651;-70
2023/05/30 15:20:09;;;;;;;12.20;5.50;;;;;;;-145.79;40.56;77339.13;5239091;28;20040;-68
2023/05/30 15:22:40;;;;;;;9.18;5.15;;;;;;;-145.79;39.66;77345.47;5240256;28;20049;-70
2023/05/30 15:25:12;;;;;;;6.75;4.45;;;;;;;-145.79;39.92;77343.38;5239845;28;20022;-68
2023/05/30 15:27:46;;;;;;;6.88;5.40;;;;;;;-145.79;40.06;77356.06;5240714;28;20477;-69
2023/05/30 15:30:21;;;;;;;10.30;6.63;;;;;;;-145.79;40.03;77364.56;5240544;28;20022;-69
2023/05/30 15:32:53;;;;;;;9.83;5.03;;;;;;;-145.79;40.44;77402.72;5239510;28;20079;-69
2023/05/30 15:35:24;;;;;;;9.85;5.38;;;;;;;-145.79;40.61;77400.59;5240578;28;20759;-69
2023/05/30 15:37:56;;;;;;;11.10;5.97;;;;;;;-145.79;40.67;77409.06;5240156;28;20041;-69
2023/05/30 15:40:27;;;;;;;5.97;5.30;;;;;;;-145.79;40.82;77400.59;5239170;28;20464;-69
2023/05/30 15:42:58;;;;;;;13.25;9.43;;;;;;;-145.79;40.70;77394.22;5241202;28;20032;-69
2023/05/30 15:45:30;;;;;;;7.72;5.22;;;;;;;-145.79;41.15;77390.00;5243956;28;20025;-72
2023/05/30 15:48:01;;;;;;;7.63;5.05;;;;;;;-145.79;40.84;77381.50;5244609;28;20044;-70
2023/05/30 15:50:32;;;;;;;7.85;5.40;;;;;;;-145.79;41.12;77413.31;5244490;28;20033;-69
2023/05/30 15:53:04;;;;;;;8.73;5.88;;;;;;;-145.79;41.31;77406.94;5242602;28;20472;-69
2023/05/30 15:55:35;;;;;;;7.45;4.95;;;;;;;-145.79;41.48;77417.53;5231123;28;20080;-69
2023/05/30 15:58:06;;;;;;;6.43;5.25;;;;;;;-145.79;41.23;77411.19;5223999;28;20030;-69
2023/05/30 16:00:38;;;;;;;6.22;5.28;;;;;;;-145.79;41.25;77428.16;5223211;28;20029;-68
2023/05/30 16:03:10;;;;;;;7.40;4.88;;;;;;;-145.79;41.79;77415.44;5238203;28;20094;-71
2023/05/30 16:05:44;;;;;;;6.78;5.30;;;;;;;-145.79;41.71;77421.78;5243877;28;20053;-69
2023/05/30 16:08:15;;;;;;;13.88;12.30;;;;;;;-145.79;41.34;77404.84;5241599;28;20026;-69
2023/05/30 16:10:46;;;;;;;6.75;4.93;;;;;;;-145.79;41.01;77381.50;5244240;28;20023;-69
2023/05/30 16:13:18;;;;;;;7.90;6.03;;;;;;;-145.79;41.32;77421.78;5242630;28;20021;-70
2023/05/30 16:15:49;;;;;;;7.97;5.72;;;;;;;-145.79;41.25;77398.47;5229367;28;20056;-70
2023/05/30 16:18:20;;;;;;;6.47;5.00;;;;;;;-145.79;41.42;77390.00;5223701;28;20028;-70
2023/05/30 16:20:52;;;;;;;7.20;5.07;;;;;;;-145.79;41.27;77375.16;5222478;28;20026;-70
2023/05/30 16:23:23;;;;;;;5.70;5.05;;;;;;;-145.79;40.45;77364.56;5223848;28;20484;-70
2023/05/30 16:25:54;;;;;;;10.02;5.75;;;;;;;-145.79;40.34;77351.84;5237915;28;20036;-70
2023/05/30 16:28:25;;;;;;;6.78;6.10;;;;;;;-145.79;39.95;77373.03;5243523;28;20052;-70
2023/05/30 16:30:57;;;;;;;8.43;5.40;;;;;;;-145.79;39.90;77364.56;5244132;28;20026;-69
2023/05/30 16:33:28;;;;;;;9.52;5.93;;;;;;;-145.79;39.78;77362.44;5244102;28;20029;-69
2023/05/30 16:36:01;;;;;;;7.80;5.15;;;;;;;-145.79;39.72;77353.97;5243216;28;20029;-69
2023/05/30 16:38:35;;;;;;;7.43;5.43;;;;;;;-145.79;39.78;77377.28;5244211;28;20048;-69
2023/05/30 16:41:06;;;;;;;7.68;5.43;;;;;;;-145.79;39.89;77379.41;5243797;28;20053;-71
2023/05/30 16:43:38;;;;;;;7.15;5.57;;;;;;;-145.79;40.15;77381.50;5243202;28;20104;-71
2023/05/30 16:46:10;;;;;;;8.07;5.78;;;;;;;-145.79;40.04;77411.19;5244085;28;20075;-70
2023/05/30 16:48:42;;;;;;;6.88;5.05;;;;;;;-145.79;39.96;77387.88;5242900;28;20044;-68
2023/05/30 16:51:13;;;;;;;6.88;5.28;;;;;;;-145.79;40.11;77381.50;5243717;28;20025;-69
2023/05/30 16:53:45;;;;;;;8.82;5.00;;;;;;;-145.79;40.12;77375.16;5243199;28;20022;-69
